Terminal Aerodrome Forecast
Issued by NWS

Home | Current Version | Previous Version | Text Only | Print | Product List | Glossary On
Versions: 1 2 3 4 5 6 7 8 9 10 11 12 13 14 15 16 17
501
FTUS42 TJSJ 181720
TAFJMZ
TAF
TJMZ 181720Z 1818/1918 09014KT P6SM VCSH SCT025 SCT050
     FM182300 07006KT P6SM FEW040
     FM191530 09012KT P6SM SCT030
      AMD NOT SKED=

USA.gov is the U.S. government's official web portal to all federal, state and local government web resources and services.